sensor_id;sensor_type;location;lat;lon;timestamp;temperature;humidity
46416;DHT22;32620;51.704;7.822;2023-08-24T00:50:28;16.30;99.90
46416;DHT22;32620;51.704;7.822;2023-08-24T00:52:54;16.10;99.90
46416;DHT22;32620;51.704;7.822;2023-08-24T00:55:20;16.00;99.90
46416;DHT22;32620;51.704;7.822;2023-08-24T00:57:46;16.00;99.90
46416;DHT22;32620;51.704;7.822;2023-08-24T01:00:13;16.00;99.90
46416;DHT22;32620;51.704;7.822;2023-08-24T01:02:39;16.00;99.90
46416;DHT22;32620;51.704;7.822;2023-08-24T01:05:05;15.90;99.90
46416;DHT22;32620;51.704;7.822;2023-08-24T01:07:33;15.80;99.90
46416;DHT22;32620;51.704;7.822;2023-08-24T01:10:00;15.80;99.90
46416;DHT22;32620;51.704;7.822;2023-08-24T01:18:10;15.80;99.90
46416;DHT22;32620;51.704;7.822;2023-08-24T01:20:37;15.80;99.90
46416;DHT22;32620;51.704;7.822;2023-08-24T01:26:17;15.80;99.90
46416;DHT22;32620;51.704;7.822;2023-08-24T02:10:29;14.70;99.90
46416;DHT22;32620;51.704;7.822;2023-08-24T02:12:54;15.50;99.90
46416;DHT22;32620;51.704;7.822;2023-08-24T02:27:32;15.40;99.90
46416;DHT22;32620;51.704;7.822;2023-08-24T02:29:57;15.30;99.90
46416;DHT22;32620;51.704;7.822;2023-08-24T02:32:23;15.30;99.90
46416;DHT22;32620;51.704;7.822;2023-08-24T02:34:49;15.30;99.90
46416;DHT22;32620;51.704;7.822;2023-08-24T02:37:14;15.30;99.90
46416;DHT22;32620;51.704;7.822;2023-08-24T02:39:40;15.30;99.90
46416;DHT22;32620;51.704;7.822;2023-08-24T02:42:05;15.30;99.90
46416;DHT22;32620;51.704;7.822;2023-08-24T02:44:31;15.30;99.90
46416;DHT22;32620;51.704;7.822;2023-08-24T02:46:57;15.30;99.90
46416;DHT22;32620;51.704;7.822;2023-08-24T02:49:23;15.30;99.90
46416;DHT22;32620;51.704;7.822;2023-08-24T02:51:48;15.30;99.90
46416;DHT22;32620;51.704;7.822;2023-08-24T02:54:14;15.20;99.90
46416;DHT22;32620;51.704;7.822;2023-08-24T02:56:40;15.20;99.90
46416;DHT22;32620;51.704;7.822;2023-08-24T02:59:06;15.20;99.90
46416;DHT22;32620;51.704;7.822;2023-08-24T03:01:31;15.20;99.90
46416;DHT22;32620;51.704;7.822;2023-08-24T03:03:57;15.20;99.90
46416;DHT22;32620;51.704;7.822;2023-08-24T03:06:23;15.20;99.90
46416;DHT22;32620;51.704;7.822;2023-08-24T03:08:50;15.20;99.90
46416;DHT22;32620;51.704;7.822;2023-08-24T03:11:15;15.30;99.90
46416;DHT22;32620;51.704;7.822;2023-08-24T03:13:41;15.20;99.90
46416;DHT22;32620;51.704;7.822;2023-08-24T03:16:08;15.20;99.90
46416;DHT22;32620;51.704;7.822;2023-08-24T03:18:33;15.20;99.90
46416;DHT22;32620;51.704;7.822;2023-08-24T03:20:59;15.10;99.90
46416;DHT22;32620;51.704;7.822;2023-08-24T03:23:26;15.10;99.90
46416;DHT22;32620;51.704;7.822;2023-08-24T03:25:52;15.10;99.90
46416;DHT22;32620;51.704;7.822;2023-08-24T03:28:18;15.10;99.90
46416;DHT22;32620;51.704;7.822;2023-08-24T03:30:47;15.10;99.90
46416;DHT22;32620;51.704;7.822;2023-08-24T03:33:13;15.10;99.90
46416;DHT22;32620;51.704;7.822;2023-08-24T03:35:39;15.20;99.90
46416;DHT22;32620;51.704;7.822;2023-08-24T03:38:05;15.20;99.90
46416;DHT22;32620;51.704;7.822;2023-08-24T03:40:31;15.30;99.90
46416;DHT22;32620;51.704;7.822;2023-08-24T03:42:57;15.30;99.90
46416;DHT22;32620;51.704;7.822;2023-08-24T03:45:22;15.40;99.90
46416;DHT22;32620;51.704;7.822;2023-08-24T03:47:48;15.40;99.90
46416;DHT22;32620;51.704;7.822;2023-08-24T03:50:15;15.40;99.90
46416;DHT22;32620;51.704;7.822;2023-08-24T03:52:41;15.40;99.90
46416;DHT22;32620;51.704;7.822;2023-08-24T03:55:07;15.40;99.90
46416;DHT22;32620;51.704;7.822;2023-08-24T03:57:33;15.50;99.90
46416;DHT22;32620;51.704;7.822;2023-08-24T03:59:59;15.40;99.90
46416;DHT22;32620;51.704;7.822;2023-08-24T05:54:36;16.70;99.90
46416;DHT22;32620;51.704;7.822;2023-08-24T05:57:03;16.60;99.90
46416;DHT22;32620;51.704;7.822;2023-08-24T05:59:29;16.50;99.90
46416;DHT22;32620;51.704;7.822;2023-08-24T06:01:55;16.60;99.90
46416;DHT22;32620;51.704;7.822;2023-08-24T06:04:21;16.70;99.90
46416;DHT22;32620;51.704;7.822;2023-08-24T06:06:46;16.70;99.90
46416;DHT22;32620;51.704;7.822;2023-08-24T06:09:12;16.80;99.90
46416;DHT22;32620;51.704;7.822;2023-08-24T06:11:37;16.80;99.90
46416;DHT22;32620;51.704;7.822;2023-08-24T06:14:03;16.90;99.90
46416;DHT22;32620;51.704;7.822;2023-08-24T06:16:29;17.00;99.90
46416;DHT22;32620;51.704;7.822;2023-08-24T06:18:55;17.00;99.90
46416;DHT22;32620;51.704;7.822;2023-08-24T06:21:21;17.00;99.90
46416;DHT22;32620;51.704;7.822;2023-08-24T06:23:46;17.00;99.90
46416;DHT22;32620;51.704;7.822;2023-08-24T06:26:13;17.10;99.90
46416;DHT22;32620;51.704;7.822;2023-08-24T06:28:39;17.20;99.90
46416;DHT22;32620;51.704;7.822;2023-08-24T06:31:05;17.20;99.90
46416;DHT22;32620;51.704;7.822;2023-08-24T06:33:34;17.30;99.90
46416;DHT22;32620;51.704;7.822;2023-08-24T06:36:02;17.30;99.90
46416;DHT22;32620;51.704;7.822;2023-08-24T06:38:28;17.30;99.90
46416;DHT22;32620;51.704;7.822;2023-08-24T06:40:54;17.50;99.90
46416;DHT22;32620;51.704;7.822;2023-08-24T06:43:20;17.60;99.90
46416;DHT22;32620;51.704;7.822;2023-08-24T06:45:46;18.40;99.90
46416;DHT22;32620;51.704;7.822;2023-08-24T06:48:12;20.00;99.90
46416;DHT22;32620;51.704;7.822;2023-08-24T06:50:37;22.00;99.90
46416;DHT22;32620;51.704;7.822;2023-08-24T06:53:04;23.70;1.00
46416;DHT22;32620;51.704;7.822;2023-08-24T06:55:30;24.60;99.90
46416;DHT22;32620;51.704;7.822;2023-08-24T06:57:56;24.90;99.90
46416;DHT22;32620;51.704;7.822;2023-08-24T07:00:22;25.90;36.20
46416;DHT22;32620;51.704;7.822;2023-08-24T07:02:48;27.10;99.90
46416;DHT22;32620;51.704;7.822;2023-08-24T07:05:14;27.10;14.60
46416;DHT22;32620;51.704;7.822;2023-08-24T07:07:43;27.60;99.90
46416;DHT22;32620;51.704;7.822;2023-08-24T07:12:35;28.30;99.90
46416;DHT22;32620;51.704;7.822;2023-08-24T07:15:02;28.50;1.00
46416;DHT22;32620;51.704;7.822;2023-08-24T07:17:28;28.70;1.00
46416;DHT22;32620;51.704;7.822;2023-08-24T07:19:53;28.30;1.00
46416;DHT22;32620;51.704;7.822;2023-08-24T07:22:19;28.40;99.90
46416;DHT22;32620;51.704;7.822;2023-08-24T07:24:45;27.90;49.80
46416;DHT22;32620;51.704;7.822;2023-08-24T07:51:33;31.50;1.00
46416;DHT22;32620;51.704;7.822;2023-08-24T07:53:59;30.90;1.00
46416;DHT22;32620;51.704;7.822;2023-08-24T07:56:25;30.30;99.90
46416;DHT22;32620;51.704;7.822;2023-08-24T07:58:51;30.20;99.90
46416;DHT22;32620;51.704;7.822;2023-08-24T08:01:16;30.10;99.90
46416;DHT22;32620;51.704;7.822;2023-08-24T08:03:42;31.00;99.90
46416;DHT22;32620;51.704;7.822;2023-08-24T08:06:08;32.00;1.00
46416;DHT22;32620;51.704;7.822;2023-08-24T08:08:33;31.80;24.50
46416;DHT22;32620;51.704;7.822;2023-08-24T08:11:00;31.90;1.00
46416;DHT22;32620;51.704;7.822;2023-08-24T08:13:28;31.60;1.00
46416;DHT22;32620;51.704;7.822;2023-08-24T08:15:53;31.00;99.90
46416;DHT22;32620;51.704;7.822;2023-08-24T08:18:19;32.00;14.40
46416;DHT22;32620;51.704;7.822;2023-08-24T08:20:45;31.60;1.00
46416;DHT22;32620;51.704;7.822;2023-08-24T08:23:11;31.60;1.00
46416;DHT22;32620;51.704;7.822;2023-08-24T08:25:36;31.50;1.00
46416;DHT22;32620;51.704;7.822;2023-08-24T08:28:02;32.20;1.00
46416;DHT22;32620;51.704;7.822;2023-08-24T08:30:28;32.60;1.00
46416;DHT22;32620;51.704;7.822;2023-08-24T08:32:53;31.90;1.00
46416;DHT22;32620;51.704;7.822;2023-08-24T08:35:21;32.20;1.00
46416;DHT22;32620;51.704;7.822;2023-08-24T08:37:47;31.90;1.00
46416;DHT22;32620;51.704;7.822;2023-08-24T08:40:15;32.90;1.00
46416;DHT22;32620;51.704;7.822;2023-08-24T08:42:40;33.00;1.00
46416;DHT22;32620;51.704;7.822;2023-08-24T08:45:09;32.80;1.00
46416;DHT22;32620;51.704;7.822;2023-08-24T08:47:35;33.10;1.00
46416;DHT22;32620;51.704;7.822;2023-08-24T08:50:02;33.50;1.00
46416;DHT22;32620;51.704;7.822;2023-08-24T08:52:29;32.00;99.90
46416;DHT22;32620;51.704;7.822;2023-08-24T08:54:55;32.00;1.00
46416;DHT22;32620;51.704;7.822;2023-08-24T08:57:23;32.90;1.00
46416;DHT22;32620;51.704;7.822;2023-08-24T08:59:51;32.90;1.00
46416;DHT22;32620;51.704;7.822;2023-08-24T09:02:19;32.40;1.00
46416;DHT22;32620;51.704;7.822;2023-08-24T09:04:45;33.30;1.00
46416;DHT22;32620;51.704;7.822;2023-08-24T09:07:13;34.20;99.90
46416;DHT22;32620;51.704;7.822;2023-08-24T09:09:39;33.60;99.90
46416;DHT22;32620;51.704;7.822;2023-08-24T09:12:06;33.20;99.90
46416;DHT22;32620;51.704;7.822;2023-08-24T09:14:33;32.40;99.90
46416;DHT22;32620;51.704;7.822;2023-08-24T09:16:59;32.40;99.90
46416;DHT22;32620;51.704;7.822;2023-08-24T09:19:29;31.80;1.00
46416;DHT22;32620;51.704;7.822;2023-08-24T09:21:57;33.60;99.90
46416;DHT22;32620;51.704;7.822;2023-08-24T09:24:33;33.90;99.90
46416;DHT22;32620;51.704;7.822;2023-08-24T09:27:00;32.90;99.90
46416;DHT22;32620;51.704;7.822;2023-08-24T09:29:26;32.90;99.90
46416;DHT22;32620;51.704;7.822;2023-08-24T09:31:51;33.50;99.90
46416;DHT22;32620;51.704;7.822;2023-08-24T09:34:20;33.00;99.90
46416;DHT22;32620;51.704;7.822;2023-08-24T09:36:46;33.00;99.90
46416;DHT22;32620;51.704;7.822;2023-08-24T09:39:16;33.60;99.90
46416;DHT22;32620;51.704;7.822;2023-08-24T09:41:46;33.50;99.90
46416;DHT22;32620;51.704;7.822;2023-08-24T09:44:13;33.20;99.90
46416;DHT22;32620;51.704;7.822;2023-08-24T09:46:39;33.00;99.90
46416;DHT22;32620;51.704;7.822;2023-08-24T09:49:06;33.40;99.90
46416;DHT22;32620;51.704;7.822;2023-08-24T09:51:35;32.80;99.90
46416;DHT22;32620;51.704;7.822;2023-08-24T09:54:04;33.60;99.90
46416;DHT22;32620;51.704;7.822;2023-08-24T09:56:34;34.00;99.90
46416;DHT22;32620;51.704;7.822;2023-08-24T09:59:11;34.00;99.90
46416;DHT22;32620;51.704;7.822;2023-08-24T10:01:38;33.80;99.90
46416;DHT22;32620;51.704;7.822;2023-08-24T10:04:05;33.30;99.90
46416;DHT22;32620;51.704;7.822;2023-08-24T10:06:32;33.00;99.90
46416;DHT22;32620;51.704;7.822;2023-08-24T10:09:01;32.70;99.90
46416;DHT22;32620;51.704;7.822;2023-08-24T10:11:31;32.40;1.00
46416;DHT22;32620;51.704;7.822;2023-08-24T10:14:05;33.00;1.00
46416;DHT22;32620;51.704;7.822;2023-08-24T10:16:34;32.70;99.90
46416;DHT22;32620;51.704;7.822;2023-08-24T10:19:01;32.70;99.90
46416;DHT22;32620;51.704;7.822;2023-08-24T10:21:29;33.00;99.90
46416;DHT22;32620;51.704;7.822;2023-08-24T10:23:57;32.90;99.90
46416;DHT22;32620;51.704;7.822;2023-08-24T10:26:24;32.60;99.90
46416;DHT22;32620;51.704;7.822;2023-08-24T10:28:50;32.30;99.90
46416;DHT22;32620;51.704;7.822;2023-08-24T10:31:17;32.00;1.00
46416;DHT22;32620;51.704;7.822;2023-08-24T10:33:45;32.40;1.00
46416;DHT22;32620;51.704;7.822;2023-08-24T10:36:13;32.70;99.90
46416;DHT22;32620;51.704;7.822;2023-08-24T10:38:41;33.10;99.90
46416;DHT22;32620;51.704;7.822;2023-08-24T10:41:07;32.90;99.90
46416;DHT22;32620;51.704;7.822;2023-08-24T10:43:36;33.10;99.90
46416;DHT22;32620;51.704;7.822;2023-08-24T10:46:02;33.10;99.90
46416;DHT22;32620;51.704;7.822;2023-08-24T10:48:56;32.80;99.90
46416;DHT22;32620;51.704;7.822;2023-08-24T10:51:18;32.80;99.90
46416;DHT22;32620;51.704;7.822;2023-08-24T10:56:40;32.60;99.90
46416;DHT22;32620;51.704;7.822;2023-08-24T10:59:14;32.60;1.00
46416;DHT22;32620;51.704;7.822;2023-08-24T11:01:54;32.40;1.00
46416;DHT22;32620;51.704;7.822;2023-08-24T11:04:20;32.40;22.80
46416;DHT22;32620;51.704;7.822;2023-08-24T11:07:00;32.30;1.00
46416;DHT22;32620;51.704;7.822;2023-08-24T11:09:45;32.30;1.00
46416;DHT22;32620;51.704;7.822;2023-08-24T11:12:12;31.80;1.00
46416;DHT22;32620;51.704;7.822;2023-08-24T11:14:49;31.20;1.00
46416;DHT22;32620;51.704;7.822;2023-08-24T11:17:24;30.80;1.00
46416;DHT22;32620;51.704;7.822;2023-08-24T11:19:52;30.60;22.90
46416;DHT22;32620;51.704;7.822;2023-08-24T11:22:18;30.70;81.50
46416;DHT22;32620;51.704;7.822;2023-08-24T11:24:45;30.80;93.10
46416;DHT22;32620;51.704;7.822;2023-08-24T11:27:10;31.00;99.90
46416;DHT22;32620;51.704;7.822;2023-08-24T11:29:36;30.60;99.90
46416;DHT22;32620;51.704;7.822;2023-08-24T11:32:02;30.60;99.90
46416;DHT22;32620;51.704;7.822;2023-08-24T11:34:28;31.00;99.90
46416;DHT22;32620;51.704;7.822;2023-08-24T11:36:54;30.90;99.90
46416;DHT22;32620;51.704;7.822;2023-08-24T11:39:22;31.10;99.90
46416;DHT22;32620;51.704;7.822;2023-08-24T11:42:01;31.00;99.90
46416;DHT22;32620;51.704;7.822;2023-08-24T11:44:27;31.20;99.90
46416;DHT22;32620;51.704;7.822;2023-08-24T11:46:55;30.70;1.00
46416;DHT22;32620;51.704;7.822;2023-08-24T11:49:21;30.60;1.00
46416;DHT22;32620;51.704;7.822;2023-08-24T11:54:19;30.10;1.00
46416;DHT22;32620;51.704;7.822;2023-08-24T11:56:46;30.10;5.90
46416;DHT22;32620;51.704;7.822;2023-08-24T11:59:13;30.00;23.30
46416;DHT22;32620;51.704;7.822;2023-08-24T12:01:40;29.70;99.90
46416;DHT22;32620;51.704;7.822;2023-08-24T12:04:06;29.90;99.90
46416;DHT22;32620;51.704;7.822;2023-08-24T12:06:31;30.00;99.90
46416;DHT22;32620;51.704;7.822;2023-08-24T12:08:57;29.60;1.00
46416;DHT22;32620;51.704;7.822;2023-08-24T12:11:23;29.70;1.00
46416;DHT22;32620;51.704;7.822;2023-08-24T12:13:52;29.70;28.30
46416;DHT22;32620;51.704;7.822;2023-08-24T12:16:19;29.60;10.10
46416;DHT22;32620;51.704;7.822;2023-08-24T12:19:06;29.60;99.90
46416;DHT22;32620;51.704;7.822;2023-08-24T12:21:32;29.70;99.90
46416;DHT22;32620;51.704;7.822;2023-08-24T12:24:00;29.70;99.90
46416;DHT22;32620;51.704;7.822;2023-08-24T12:26:27;29.80;99.90
46416;DHT22;32620;51.704;7.822;2023-08-24T12:28:54;29.90;99.90
46416;DHT22;32620;51.704;7.822;2023-08-24T12:31:26;29.90;71.70
46416;DHT22;32620;51.704;7.822;2023-08-24T12:34:02;29.80;99.90
46416;DHT22;32620;51.704;7.822;2023-08-24T12:36:29;29.80;99.90
46416;DHT22;32620;51.704;7.822;2023-08-24T12:38:55;29.80;99.90
46416;DHT22;32620;51.704;7.822;2023-08-24T12:41:21;29.80;1.00
46416;DHT22;32620;51.704;7.822;2023-08-24T12:43:47;29.70;99.90
46416;DHT22;32620;51.704;7.822;2023-08-24T12:46:12;29.90;1.00
46416;DHT22;32620;51.704;7.822;2023-08-24T12:48:38;29.90;99.90
46416;DHT22;32620;51.704;7.822;2023-08-24T12:51:04;29.80;99.90
46416;DHT22;32620;51.704;7.822;2023-08-24T12:53:29;29.70;99.90
46416;DHT22;32620;51.704;7.822;2023-08-24T12:55:55;29.80;99.90
46416;DHT22;32620;51.704;7.822;2023-08-24T12:58:21;29.70;99.90
46416;DHT22;32620;51.704;7.822;2023-08-24T13:00:47;29.70;99.90
46416;DHT22;32620;51.704;7.822;2023-08-24T13:03:13;29.70;99.90
46416;DHT22;32620;51.704;7.822;2023-08-24T13:05:39;29.70;99.90
46416;DHT22;32620;51.704;7.822;2023-08-24T13:08:05;29.50;99.90
46416;DHT22;32620;51.704;7.822;2023-08-24T13:10:30;29.70;99.90
46416;DHT22;32620;51.704;7.822;2023-08-24T13:12:56;29.50;99.90
46416;DHT22;32620;51.704;7.822;2023-08-24T13:15:22;29.60;99.90
46416;DHT22;32620;51.704;7.822;2023-08-24T13:17:48;29.60;99.90
46416;DHT22;32620;51.704;7.822;2023-08-24T13:20:13;29.70;1.00
46416;DHT22;32620;51.704;7.822;2023-08-24T13:22:39;29.70;99.90
46416;DHT22;32620;51.704;7.822;2023-08-24T13:25:05;29.80;1.00
46416;DHT22;32620;51.704;7.822;2023-08-24T13:27:31;29.80;1.00
46416;DHT22;32620;51.704;7.822;2023-08-24T13:30:00;29.70;99.90
46416;DHT22;32620;51.704;7.822;2023-08-24T13:32:26;29.20;1.00
46416;DHT22;32620;51.704;7.822;2023-08-24T13:34:51;29.00;99.90
46416;DHT22;32620;51.704;7.822;2023-08-24T13:37:18;29.20;99.90
46416;DHT22;32620;51.704;7.822;2023-08-24T13:39:44;29.10;99.90
46416;DHT22;32620;51.704;7.822;2023-08-24T13:42:09;29.00;3.90
46416;DHT22;32620;51.704;7.822;2023-08-24T13:44:35;28.80;99.90
46416;DHT22;32620;51.704;7.822;2023-08-24T13:47:01;28.80;99.90
46416;DHT22;32620;51.704;7.822;2023-08-24T13:49:26;28.60;99.90
46416;DHT22;32620;51.704;7.822;2023-08-24T13:51:52;28.50;99.90
46416;DHT22;32620;51.704;7.822;2023-08-24T13:54:19;28.40;99.90
46416;DHT22;32620;51.704;7.822;2023-08-24T13:56:47;28.20;99.90
46416;DHT22;32620;51.704;7.822;2023-08-24T14:04:06;27.60;1.00
46416;DHT22;32620;51.704;7.822;2023-08-24T14:06:33;27.50;99.90
